La Porte, Texas
Current Conditions -  °F | °C
As of 2:50 AM on Sunday 21 Dec 2014 (Local Time) from KEFD Reporting Station
Overcast Overcast  
Wind Chill: 52°   Ceiling: 2500
Heat Index: 52°   Visibility: 10mi
Dew Point: 50°   Wind: 5mph
Humidity: 94%   Direction: 30°NNE
Pressure: 30.16"   Gusts: NA
Location:  29.65°N, 95.02°W
Report Text: KEFD 210850Z 03004KT 10SM OVC025 11/10 A3016
Loading
Personal Weather Stations






























Interactive Weather Map New forecast layout! Learn more

10-Day Weather Forecast

Advertisements
Track Severe Weather on mobile